Time;durP1;ratioP1;P1;durP2;ratioP2;P2;SDS_P1;SDS_P2;PMS_P1;PMS_P2;Temp;Humidity;BMP_temperature;BMP_pressure;BME280_temperature;BME280_humidity;BME280_pressure;Samples;Min_cycle;Max_cycle;Signal;HPM_P1;HPM_P2
2021/05/07 00:01:30;;;;;;;1.92;0.40;;;12.10;99.90;;;11.44;73.71;99910.38;5026890;28;20073;-47
2021/05/07 00:03:56;;;;;;;4.35;0.30;;;12.00;99.90;;;11.43;73.81;99909.56;5027590;28;20061;-52
2021/05/07 00:06:22;;;;;;;3.63;0.47;;;12.00;99.90;;;11.40;73.99;99906.47;5027661;28;20036;-49
2021/05/07 00:08:48;;;;;;;4.63;0.40;;;11.90;99.90;;;11.37;74.07;99902.38;5013924;28;20050;-47
2021/05/07 00:11:18;;;;;;;5.88;0.50;;;11.90;99.90;;;11.32;74.15;99917.72;5017734;28;20041;-51
2021/05/07 00:13:46;;;;;;;5.25;0.47;;;11.90;99.90;;;11.22;74.48;99910.06;5027273;28;20414;-50
2021/05/07 00:16:13;;;;;;;2.03;0.47;;;11.80;99.90;;;11.21;74.49;99908.44;5026759;28;20021;-50
2021/05/07 00:18:38;;;;;;;1.77;0.32;;;11.70;99.90;;;11.22;74.67;99901.41;5026617;28;20532;-49
2021/05/07 00:21:05;;;;;;;2.10;0.40;;;11.80;99.90;;;11.18;74.66;99900.13;5027405;28;20092;-50
2021/05/07 00:23:33;;;;;;;4.45;0.70;;;11.70;99.90;;;11.35;74.44;99900.91;5027593;28;20112;-49
2021/05/07 00:25:59;;;;;;;1.70;0.40;;;11.80;99.90;;;11.38;74.29;99895.38;5026703;28;20079;-49
2021/05/07 00:28:25;;;;;;;1.52;0.65;;;11.90;99.90;;;11.33;74.47;99892.47;5024338;28;20041;-54
2021/05/07 00:30:51;;;;;;;6.90;0.95;;;11.90;99.90;;;11.30;74.80;99885.78;5027172;28;20046;-51
2021/05/07 00:33:18;;;;;;;5.05;0.55;;;11.90;99.90;;;11.29;74.77;99892.78;5027199;28;20152;-53
2021/05/07 00:35:44;;;;;;;4.30;0.40;;;11.90;99.90;;;11.28;74.83;99904.19;5027400;28;20043;-52
2021/05/07 00:38:10;;;;;;;4.80;0.40;;;11.80;99.90;;;11.27;74.94;99906.97;5026606;28;20362;-52
2021/05/07 00:40:36;;;;;;;5.65;0.30;;;11.80;99.90;;;11.28;74.85;99906.00;5026749;28;20425;-49
2021/05/07 00:43:03;;;;;;;3.78;0.40;;;11.80;99.90;;;11.26;75.25;99902.72;5027104;28;20476;-54
2021/05/07 00:45:29;;;;;;;2.47;0.40;;;11.80;99.90;;;11.23;75.59;99897.84;5027492;28;20030;-52
2021/05/07 00:48:13;;;;;;;2.95;0.40;;;11.80;99.90;;;11.21;76.40;99899.78;5027332;28;20041;-52
2021/05/07 00:50:43;;;;;;;2.95;0.43;;;11.80;99.90;;;11.13;76.59;99925.84;5026858;28;20462;-51
2021/05/07 00:53:09;;;;;;;4.25;0.57;;;11.70;99.90;;;11.02;77.80;99915.72;5027233;28;20059;-48
2021/05/07 00:55:37;;;;;;;5.65;0.68;;;11.60;99.90;;;10.89;78.68;99905.75;5008600;28;20037;-47
2021/05/07 00:58:04;;;;;;;2.75;0.75;;;11.50;99.90;;;10.76;79.95;99903.63;5027183;28;20038;-46
2021/05/07 01:00:31;;;;;;;5.47;0.90;;;11.40;99.90;;;10.62;81.04;99894.63;5026998;28;20046;-53
2021/05/07 01:02:59;;;;;;;6.13;0.93;;;11.30;99.90;;;10.53;81.41;99892.16;5026859;28;20032;-54
2021/05/07 01:05:26;;;;;;;4.93;1.25;;;11.20;99.90;;;10.55;81.64;99901.44;5027274;28;20139;-51
2021/05/07 01:07:53;;;;;;;6.07;0.82;;;11.10;99.90;;;10.54;82.03;99899.81;5009210;28;20418;-48
2021/05/07 01:10:20;;;;;;;5.38;0.60;;;11.10;99.90;;;10.50;83.30;99900.28;5026440;28;20791;-49
2021/05/07 01:12:47;;;;;;;2.88;0.68;;;11.10;99.90;;;10.48;83.42;99903.03;5028033;28;20038;-51
2021/05/07 01:15:21;;;;;;;3.83;0.82;;;11.10;99.90;;;10.44;84.28;99895.69;5030630;28;20084;-51
2021/05/07 01:17:53;;;;;;;4.30;1.30;;;11.00;99.90;;;10.39;84.40;99896.19;5030601;28;20428;-52
2021/05/07 01:20:28;;;;;;;3.45;1.17;;;11.00;99.90;;;10.34;84.76;99889.84;5030525;28;20036;-49
2021/05/07 01:22:58;;;;;;;7.22;0.70;;;11.00;99.90;;;10.29;84.95;99887.69;5030433;28;20091;-50
2021/05/07 01:25:28;;;;;;;3.97;1.13;;;10.90;99.90;;;10.29;85.11;99885.09;5012493;28;20548;-53
2021/05/07 01:27:59;;;;;;;2.42;0.60;;;10.90;99.90;;;10.28;85.57;99888.66;5030130;28;20048;-50
2021/05/07 01:30:32;;;;;;;7.30;0.77;;;10.80;99.90;;;10.27;85.62;99882.66;5030145;28;20137;-46
2021/05/07 01:32:58;;;;;;;4.15;0.60;;;10.80;99.90;;;10.28;85.55;99881.66;5030421;28;20104;-48
2021/05/07 01:35:33;;;;;;;2.28;0.70;;;10.80;99.90;;;10.28;85.52;99881.66;5030477;28;20036;-51
2021/05/07 01:38:04;;;;;;;5.10;1.27;;;10.90;99.90;;;10.22;85.62;99871.88;5030293;28;20041;-53
2021/05/07 01:40:33;;;;;;;3.90;0.90;;;10.80;99.90;;;10.18;85.50;99873.13;5029801;28;20284;-52
2021/05/07 01:43:00;;;;;;;3.17;0.95;;;10.70;99.90;;;10.13;85.97;99872.78;5029943;28;20115;-50
2021/05/07 01:45:36;;;;;;;2.72;0.80;;;10.70;99.90;;;10.12;86.66;99865.94;5030303;28;20057;-52
2021/05/07 01:48:04;;;;;;;3.03;0.68;;;10.70;99.90;;;10.15;86.22;99864.81;5030020;28;20048;-52
2021/05/07 01:50:33;;;;;;;4.13;0.88;;;10.70;99.90;;;10.14;86.51;99857.97;5028151;28;20045;-49
2021/05/07 01:52:59;;;;;;;4.82;1.15;;;10.70;99.90;;;10.08;86.91;99862.03;5029247;28;20112;-50
2021/05/07 01:55:29;;;;;;;1.98;0.80;;;10.70;99.90;;;10.03;88.44;99853.84;5029772;28;20043;-52
2021/05/07 01:57:55;;;;;;;3.70;0.70;;;10.60;99.90;;;9.97;88.13;99851.88;5029730;28;20079;-47
2021/05/07 02:00:25;;;;;;;4.10;1.20;;;10.60;99.90;;;9.98;88.51;99853.50;5030530;28;20033;-47
2021/05/07 02:02:52;;;;;;;3.70;1.20;;;10.50;99.90;;;10.05;88.56;99859.72;5029277;28;20033;-50
2021/05/07 02:05:20;;;;;;;4.90;1.30;;;10.60;99.90;;;10.06;88.63;99856.16;5029646;28;20472;-51
2021/05/07 02:07:46;;;;;;;5.70;0.80;;;10.60;99.90;;;10.05;89.20;99864.94;5029680;28;20073;-52
2021/05/07 02:10:20;;;;;;;2.83;0.73;;;10.60;99.90;;;10.03;89.10;99869.47;5011765;28;20044;-50
2021/05/07 02:12:49;;;;;;;6.55;1.00;;;10.60;99.90;;;10.02;88.90;99854.81;5028902;28;20049;-49
2021/05/07 02:15:18;;;;;;;7.55;0.80;;;10.60;99.90;;;10.02;89.14;99860.03;5023803;28;20022;-49
2021/05/07 02:17:44;;;;;;;4.90;1.00;;;10.60;99.90;;;10.05;88.58;99864.94;5011296;28;20116;-53
2021/05/07 02:20:13;;;;;;;7.88;1.48;;;10.60;99.90;;;10.05;89.19;99866.72;5029160;28;20389;-53
2021/05/07 02:22:41;;;;;;;6.88;0.82;;;10.60;99.90;;;10.04;89.18;99862.47;5028782;28;20033;-49
2021/05/07 02:25:08;;;;;;;5.40;0.90;;;10.60;99.90;;;10.02;89.34;99860.03;5028388;28;20029;-53
2021/05/07 02:27:34;;;;;;;4.60;1.30;;;10.60;99.90;;;10.02;89.74;99864.41;5027384;28;20033;-53
2021/05/07 02:30:00;;;;;;;7.03;1.83;;;10.60;99.90;;;10.03;89.97;99858.25;5029653;28;20113;-53
2021/05/07 02:32:26;;;;;;;3.13;1.10;;;10.60;99.90;;;10.04;89.84;99846.88;5029344;28;20650;-51
2021/05/07 02:34:52;;;;;;;6.82;1.52;;;10.60;99.90;;;10.05;89.97;99846.72;5029007;28;20181;-51
2021/05/07 02:37:18;;;;;;;6.32;0.80;;;10.60;99.90;;;10.05;89.83;99849.31;5029289;28;20029;-49
2021/05/07 02:39:44;;;;;;;4.57;1.20;;;10.60;99.90;;;10.06;90.37;99852.72;5028771;28;20500;-53
2021/05/07 02:42:10;;;;;;;10.27;1.33;;;10.60;99.90;;;10.05;90.38;99853.69;5028990;28;20030;-46
2021/05/07 02:44:36;;;;;;;4.13;0.93;;;10.60;99.90;;;10.02;90.68;99848.81;5028866;28;20040;-49
2021/05/07 02:47:05;;;;;;;2.33;1.30;;;10.60;99.90;;;10.01;90.96;99848.00;5028971;28;20033;-47
2021/05/07 02:49:33;;;;;;;3.90;1.50;;;10.60;99.90;;;10.02;91.35;99852.22;5029061;28;20087;-48
2021/05/07 02:52:01;;;;;;;3.10;0.70;;;10.60;99.90;;;10.04;91.06;99846.88;5028961;28;20037;-52
2021/05/07 02:54:27;;;;;;;8.48;1.33;;;10.60;99.90;;;10.04;90.96;99844.25;5028402;28;20046;-53
2021/05/07 02:56:53;;;;;;;3.50;0.95;;;10.60;99.90;;;10.06;90.58;99845.75;5275722;23;20096;-47
2021/05/07 02:59:19;;;;;;;4.25;1.15;;;10.60;99.90;;;10.10;90.74;99849.66;5009083;28;20045;-52
2021/05/07 03:01:45;;;;;;;5.85;1.50;;;10.60;99.90;;;10.12;90.78;99839.91;5009011;28;20382;-51
2021/05/07 03:04:11;;;;;;;4.18;0.93;;;10.60;99.90;;;10.16;90.13;99837.81;5008829;28;20152;-52
2021/05/07 03:06:37;;;;;;;6.40;1.38;;;10.70;99.90;;;10.16;91.20;99832.59;5007266;28;20124;-51
2021/05/07 03:09:09;;;;;;;6.13;1.52;;;10.70;99.90;;;10.20;91.16;99831.34;5009057;28;20827;-54
2021/05/07 03:11:35;;;;;;;4.18;1.48;;;10.70;99.90;;;10.20;90.89;99832.16;5009190;28;20468;-52
2021/05/07 03:14:00;;;;;;;3.33;1.20;;;10.70;99.90;;;10.22;91.72;99845.03;5008696;28;20030;-51
2021/05/07 03:16:27;;;;;;;4.28;1.00;;;10.70;99.90;;;10.20;91.74;99847.78;5008689;28;20029;-47
2021/05/07 03:18:53;;;;;;;2.33;0.65;;;10.80;99.90;;;10.12;92.14;99850.31;5008564;28;20034;-52
2021/05/07 03:21:18;;;;;;;3.10;0.85;;;10.70;99.90;;;10.08;92.23;99853.38;5008811;28;20037;-51
2021/05/07 03:23:45;;;;;;;2.60;0.98;;;10.70;99.90;;;10.12;91.59;99834.72;5008730;28;20069;-46
2021/05/07 03:26:11;;;;;;;6.68;1.95;;;10.70;99.90;;;10.17;91.17;99842.03;5008733;28;20061;-52
2021/05/07 03:28:40;;;;;;;7.53;1.48;;;10.70;99.90;;;10.25;91.22;99832.50;5008588;28;20544;-50
2021/05/07 03:31:07;;;;;;;5.70;1.63;;;10.80;99.90;;;10.33;91.14;99831.72;5008522;28;20042;-50
2021/05/07 03:33:34;;;;;;;5.20;1.48;;;10.80;99.90;;;10.36;91.17;99830.59;5006842;28;20166;-48
2021/05/07 03:36:00;;;;;;;5.57;2.38;;;10.90;99.90;;;10.39;92.18;99830.28;5008283;28;20041;-50
2021/05/07 03:38:26;;;;;;;5.03;1.42;;;10.90;99.90;;;10.28;92.70;99828.78;5008269;28;20192;-51
2021/05/07 03:40:52;;;;;;;5.65;1.63;;;10.90;99.90;;;10.20;92.72;99824.34;5008213;28;20038;-52
2021/05/07 03:43:19;;;;;;;7.45;1.70;;;10.80;99.90;;;10.24;92.69;99830.88;5008187;28;20038;-51
2021/05/07 03:45:45;;;;;;;4.65;1.40;;;10.80;99.90;;;10.32;92.85;99831.88;5008236;28;20053;-48
2021/05/07 03:48:19;;;;;;;5.40;2.03;;;10.80;99.90;;;10.38;92.83;99834.69;5008429;28;20038;-47
2021/05/07 03:50:50;;;;;;;3.28;1.00;;;10.90;99.90;;;10.41;92.36;99825.69;5008263;28;20034;-49
2021/05/07 03:53:17;;;;;;;5.30;1.50;;;10.90;99.90;;;10.43;91.75;99824.56;5008056;28;20037;-46
2021/05/07 03:55:44;;;;;;;5.68;1.25;;;10.90;99.90;;;10.48;91.78;99824.91;5008133;28;20390;-47
2021/05/07 03:58:11;;;;;;;3.70;1.02;;;10.90;99.90;;;10.53;91.38;99824.44;5007614;28;20137;-47
2021/05/07 04:00:38;;;;;;;6.90;1.38;;;11.00;99.90;;;10.58;91.27;99822.16;5008065;28;20037;-46
2021/05/07 04:03:05;;;;;;;4.78;1.02;;;11.00;99.90;;;10.58;91.21;99827.38;5008036;28;20099;-46
2021/05/07 04:05:31;;;;;;;1.67;0.75;;;11.10;99.90;;;10.53;91.47;99822.66;5007932;28;20065;-48
2021/05/07 04:10:42;;;;;;;2.83;0.85;;;11.10;99.90;;;10.50;91.57;99833.38;5006442;28;20030;-48
2021/05/07 04:15:53;;;;;;;4.63;1.88;;;11.10;99.90;;;10.48;92.14;99821.50;5008178;28;20235;-45
2021/05/07 04:18:19;;;;;;;8.52;1.75;;;11.10;99.90;;;10.46;92.20;99818.22;5007905;28;20459;-46
2021/05/07 04:20:45;;;;;;;4.13;1.30;;;11.00;99.90;;;10.52;91.78;99820.19;5007701;28;20061;-46
2021/05/07 04:23:11;;;;;;;2.85;1.35;;;11.00;99.90;;;10.54;91.57;99828.69;5007692;28;20037;-46
2021/05/07 04:25:37;;;;;;;8.00;2.03;;;11.00;99.90;;;10.57;91.27;99830.97;5008129;28;20077;-47
2021/05/07 04:28:03;;;;;;;6.45;1.83;;;11.10;99.90;;;10.56;91.92;99826.72;5007654;28;20061;-46
2021/05/07 04:30:29;;;;;;;5.20;1.77;;;11.10;99.90;;;10.58;92.14;99833.41;5008014;28;20030;-47
2021/05/07 04:32:55;;;;;;;3.03;1.40;;;11.10;99.90;;;10.60;91.71;99826.25;5007988;28;20037;-46
2021/05/07 04:35:21;;;;;;;4.43;1.52;;;11.10;99.90;;;10.57;91.70;99817.94;5007847;28;20034;-47
2021/05/07 04:37:47;;;;;;;3.95;1.45;;;11.10;99.90;;;10.64;91.53;99824.16;5007690;28;20049;-46
2021/05/07 04:40:14;;;;;;;3.72;1.63;;;11.10;99.90;;;10.72;91.49;99826.75;5006123;28;20037;-46
2021/05/07 04:42:41;;;;;;;4.65;2.00;;;11.20;99.90;;;10.75;91.55;99823.84;5007791;28;20034;-47
2021/05/07 04:45:08;;;;;;;2.85;1.58;;;11.20;99.90;;;10.80;91.37;99829.38;5007612;28;20033;-46
2021/05/07 04:47:34;;;;;;;7.00;1.63;;;11.30;99.90;;;10.85;91.21;99834.94;5007908;28;20464;-48
2021/05/07 04:50:00;;;;;;;3.10;1.58;;;11.30;99.90;;;10.94;91.37;99831.31;5011649;28;20087;-47
2021/05/07 04:52:26;;;;;;;7.03;1.70;;;11.40;99.90;;;11.06;91.32;99828.41;5011459;28;20461;-46
2021/05/07 04:54:52;;;;;;;9.13;1.98;;;11.50;99.90;;;11.05;90.91;99826.78;5011252;28;20034;-45
2021/05/07 04:57:18;;;;;;;6.15;2.03;;;11.50;99.90;;;10.94;90.94;99826.13;5011112;28;20567;-43
2021/05/07 04:59:44;;;;;;;5.47;1.70;;;11.50;99.90;;;10.82;90.95;99830.03;5011442;28;20069;-46
2021/05/07 05:02:10;;;;;;;5.90;2.08;;;11.40;99.90;;;10.71;91.21;99819.09;5011355;28;20034;-44
2021/05/07 05:04:35;;;;;;;6.90;2.35;;;11.30;99.90;;;10.74;91.14;99831.81;5011080;28;20457;-46
2021/05/07 05:07:01;;;;;;;10.50;2.00;;;11.30;99.90;;;10.75;91.30;99831.66;5011130;28;20108;-47
2021/05/07 05:09:27;;;;;;;8.50;2.40;;;11.30;99.90;;;10.84;91.27;99824.66;5010913;28;20030;-43
2021/05/07 05:11:53;;;;;;;7.25;1.95;;;11.30;99.90;;;10.89;91.05;99825.78;5011282;28;20569;-50
2021/05/07 05:14:19;;;;;;;10.07;2.67;;;11.40;99.90;;;11.00;90.74;99826.44;5011208;28;20034;-51
2021/05/07 05:16:45;;;;;;;12.82;1.88;;;11.50;99.90;;;11.04;90.70;99835.56;5011408;28;20182;-48
2021/05/07 05:19:11;;;;;;;9.50;2.28;;;11.50;99.90;;;11.12;90.57;99838.19;5011005;28;20396;-48
2021/05/07 05:21:37;;;;;;;13.90;2.95;;;11.60;99.90;;;11.17;90.49;99833.28;5010895;28;20046;-46
2021/05/07 05:24:03;;;;;;;9.70;2.60;;;11.70;99.90;;;11.18;90.78;99843.56;5010943;28;20504;-48
2021/05/07 05:26:29;;;;;;;7.20;1.85;;;11.70;99.90;;;11.17;90.63;99833.28;5011163;28;20084;-44
2021/05/07 05:28:55;;;;;;;8.88;2.17;;;11.70;99.90;;;11.24;90.60;99839.50;5010947;28;20108;-47
2021/05/07 05:31:21;;;;;;;10.45;2.83;;;11.80;99.90;;;11.39;90.32;99840.44;5010738;28;20200;-45
2021/05/07 05:33:47;;;;;;;11.52;2.83;;;11.80;99.90;;;11.54;89.70;99843.19;5009342;28;20523;-49
2021/05/07 05:36:13;;;;;;;13.38;3.05;;;12.00;99.90;;;11.68;89.22;99842.53;5010601;28;20084;-45
2021/05/07 05:38:39;;;;;;;8.07;1.95;;;12.10;99.90;;;11.79;89.16;99844.00;5010207;28;20080;-46
2021/05/07 05:41:05;;;;;;;8.48;2.13;;;12.30;99.90;;;11.84;89.22;99845.09;5010352;28;20036;-43
2021/05/07 05:43:31;;;;;;;10.85;2.85;;;12.40;99.90;;;11.97;88.95;99844.59;5008884;28;20045;-46
2021/05/07 05:45:56;;;;;;;13.10;3.25;;;12.50;99.90;;;12.16;88.63;99838.97;5010626;28;20280;-46
2021/05/07 05:48:28;;;;;;;9.82;3.72;;;12.60;99.90;;;12.26;88.67;99831.75;5010593;28;20473;-46
2021/05/07 05:50:55;;;;;;;7.82;3.65;;;12.80;99.90;;;12.41;88.56;99825.78;5010313;28;20032;-45
2021/05/07 05:53:20;;;;;;;7.03;2.50;;;12.90;99.90;;;12.51;88.51;99831.59;5010306;28;20052;-48
2021/05/07 05:55:47;;;;;;;6.78;2.10;;;13.00;99.90;;;12.56;89.03;99835.34;5010272;28;20029;-47
2021/05/07 05:58:14;;;;;;;17.48;3.00;;;13.10;99.90;;;12.53;89.35;99834.84;5009898;28;20489;-50
2021/05/07 06:00:40;;;;;;;6.65;2.55;;;13.10;99.90;;;12.49;89.70;99841.41;5009066;28;20034;-49
2021/05/07 06:03:06;;;;;;;8.52;2.80;;;13.10;99.90;;;12.34;89.60;99835.28;5010060;28;20412;-48
2021/05/07 06:05:44;;;;;;;12.85;3.22;;;13.00;99.90;;;12.32;89.63;99834.63;5010080;28;20147;-48
2021/05/07 06:08:10;;;;;;;7.45;2.88;;;12.90;99.90;;;12.22;89.88;99821.81;5010194;28;20121;-50
2021/05/07 06:10:39;;;;;;;5.53;2.72;;;12.80;99.90;;;12.21;90.12;99833.25;5010066;28;20048;-49
2021/05/07 06:13:05;;;;;;;8.73;2.35;;;12.80;99.90;;;12.28;89.96;99829.78;5008024;28;20040;-50
2021/05/07 06:15:34;;;;;;;9.50;2.70;;;12.80;99.90;;;12.39;89.66;99831.16;5008375;28;20034;-51
2021/05/07 06:18:00;;;;;;;7.35;2.78;;;12.90;99.90;;;12.44;89.65;99826.25;5010248;28;20040;-48
2021/05/07 06:20:26;;;;;;;8.32;2.50;;;13.00;99.90;;;12.39;89.79;99825.13;5024730;23;20053;-51
2021/05/07 06:22:52;;;;;;;4.88;2.28;;;13.00;99.90;;;12.16;89.91;99815.47;5027256;28;20051;-55
2021/05/07 06:25:25;;;;;;;12.52;3.08;;;12.80;99.90;;;11.99;90.23;99826.94;5029807;28;20111;-53
2021/05/07 06:27:51;;;;;;;9.57;2.65;;;12.70;99.90;;;11.87;90.17;99828.28;5028321;28;20029;-48
2021/05/07 06:30:18;;;;;;;5.28;2.33;;;12.50;99.90;;;11.82;90.17;99825.38;5028917;28;20041;-53
2021/05/07 06:32:44;;;;;;;9.95;2.50;;;12.50;99.90;;;11.80;90.20;99817.75;5029184;28;20037;-51
2021/05/07 06:35:12;;;;;;;5.65;1.80;;;12.40;99.90;;;11.70;90.16;99821.47;5027824;28;20052;-54
2021/05/07 06:37:39;;;;;;;12.45;2.40;;;12.30;99.90;;;11.65;90.39;99832.41;5026135;28;20044;-50
2021/05/07 06:40:07;;;;;;;10.00;3.45;;;12.30;99.90;;;11.60;90.35;99826.88;5024499;28;20042;-49
2021/05/07 06:42:38;;;;;;;12.38;2.33;;;12.20;99.90;;;11.63;90.23;99829.97;5028593;28;20064;-49
2021/05/07 06:45:11;;;;;;;5.95;1.88;;;12.20;99.90;;;11.68;90.13;99826.06;5029616;28;20044;-52
2021/05/07 06:47:38;;;;;;;8.93;2.30;;;12.20;99.90;;;11.74;89.63;99828.00;5029345;28;20065;-52
2021/05/07 06:50:05;;;;;;;14.77;2.40;;;12.30;99.90;;;11.74;89.85;99826.19;5028851;28;20477;-52
2021/05/07 06:52:32;;;;;;;15.40;3.17;;;12.30;99.90;;;11.81;89.34;99829.00;5029099;28;20209;-53
2021/05/07 06:54:59;;;;;;;11.45;2.92;;;12.30;99.90;;;11.86;89.07;99829.28;5029145;28;20041;-52
2021/05/07 06:57:25;;;;;;;13.20;2.70;;;12.40;99.90;;;11.79;89.06;99825.72;5025713;28;20039;-53
2021/05/07 06:59:52;;;;;;;13.15;2.47;;;12.30;99.90;;;11.71;89.54;99823.94;5028828;28;20029;-54
2021/05/07 07:02:19;;;;;;;16.15;2.42;;;12.30;99.90;;;11.78;89.37;99819.69;5028970;28;20044;-48
2021/05/07 07:04:46;;;;;;;9.13;2.83;;;12.30;99.90;;;11.77;89.54;99817.25;5028573;28;20412;-53
2021/05/07 07:07:13;;;;;;;14.27;2.65;;;12.40;99.90;;;11.74;89.93;99823.59;5018631;28;20501;-52
2021/05/07 07:09:40;;;;;;;15.30;2.90;;;12.30;99.90;;;11.85;89.86;99828.47;5020802;28;20172;-52
2021/05/07 07:12:06;;;;;;;11.52;2.65;;;12.40;99.90;;;11.92;89.90;99837.25;5026834;28;20420;-52
2021/05/07 07:14:39;;;;;;;12.65;2.42;;;12.50;99.90;;;11.99;89.87;99840.00;5028582;28;20061;-50
2021/05/07 07:17:08;;;;;;;8.82;3.40;;;12.50;99.90;;;11.85;90.24;99832.88;5025617;28;20140;-49
2021/05/07 07:19:35;;;;;;;11.43;3.42;;;12.40;99.90;;;11.83;90.25;99829.59;5026438;28;20049;-52
2021/05/07 07:22:12;;;;;;;12.38;3.80;;;12.40;99.90;;;11.76;90.56;99832.06;5028213;28;20397;-50
2021/05/07 07:24:39;;;;;;;7.45;3.58;;;12.40;99.90;;;11.82;90.44;99833.19;5028178;28;20649;-53
2021/05/07 07:27:05;;;;;;;8.93;2.65;;;12.40;99.90;;;11.89;90.36;99829.75;5028373;28;20025;-50
2021/05/07 07:29:31;;;;;;;7.80;2.53;;;12.40;99.90;;;11.95;89.96;99833.50;5028205;28;20154;-50
2021/05/07 07:31:57;;;;;;;7.25;2.08;;;12.50;99.90;;;11.89;89.72;99834.16;5028231;28;20532;-49
2021/05/07 07:34:23;;;;;;;6.38;2.15;;;12.50;99.90;;;11.92;89.91;99836.44;5027853;28;20051;-51
2021/05/07 07:36:50;;;;;;;11.55;2.20;;;12.50;99.90;;;12.02;89.28;99839.66;5028237;28;20408;-53
2021/05/07 07:39:18;;;;;;;5.30;2.15;;;12.50;99.90;;;12.07;88.99;99839.97;5028083;28;20099;-53
2021/05/07 07:41:46;;;;;;;7.45;2.45;;;12.50;99.90;;;12.11;88.94;99830.81;5027918;28;20026;-50
2021/05/07 07:44:11;;;;;;;7.85;2.38;;;12.60;99.90;;;12.16;88.67;99838.97;5027982;28;20141;-50
2021/05/07 07:46:37;;;;;;;6.38;2.30;;;12.70;99.90;;;12.21;88.55;99846.31;5028242;28;20071;-48
2021/05/07 07:49:03;;;;;;;11.82;3.13;;;12.70;99.90;;;12.22;88.89;99848.75;5028233;28;20378;-51
2021/05/07 07:51:31;;;;;;;7.63;2.63;;;12.80;99.90;;;12.15;89.58;99845.19;5028292;28;20053;-50
2021/05/07 07:53:58;;;;;;;7.35;2.13;;;12.80;99.90;;;12.18;89.65;99839.63;5027813;28;20033;-49
2021/05/07 07:56:24;;;;;;;7.07;2.35;;;12.70;99.90;;;12.16;89.80;99846.81;5027856;28;20033;-50
2021/05/07 07:58:51;;;;;;;5.65;1.65;;;12.70;99.90;;;12.26;89.35;99844.00;5027822;28;20052;-49
2021/05/07 08:01:17;;;;;;;7.32;2.00;;;12.70;99.90;;;12.34;89.18;99840.50;5028010;28;20109;-48
2021/05/07 08:03:43;;;;;;;5.72;1.98;;;12.80;99.90;;;12.38;89.25;99834.78;5027795;28;20037;-50
2021/05/07 08:06:10;;;;;;;6.78;2.38;;;12.90;99.90;;;12.46;89.20;99839.94;5027750;28;20523;-49
2021/05/07 08:08:36;;;;;;;9.15;2.63;;;12.90;99.90;;;12.53;89.23;99840.09;5027948;28;20121;-47
2021/05/07 08:11:02;;;;;;;10.60;2.42;;;13.00;99.90;;;12.56;89.42;99839.75;5027520;28;20044;-52
2021/05/07 08:13:28;;;;;;;11.27;2.47;;;13.00;99.90;;;12.65;89.71;99835.28;5027811;28;20108;-50
2021/05/07 08:15:54;;;;;;;13.52;2.70;;;13.10;99.90;;;12.76;90.08;99840.91;5027532;28;20175;-48
2021/05/07 08:18:20;;;;;;;11.80;2.55;;;13.20;99.90;;;12.91;90.25;99830.50;5027565;28;20030;-48
2021/05/07 08:20:46;;;;;;;16.02;2.53;;;13.30;99.90;;;13.09;89.87;99838.06;5027244;28;20053;-50
2021/05/07 08:23:12;;;;;;;17.85;2.63;;;13.50;99.90;;;13.30;89.52;99830.38;5026622;28;20456;-48
2021/05/07 08:25:38;;;;;;;9.75;2.35;;;13.70;99.90;;;13.40;89.39;99837.97;5027584;28;20029;-49
2021/05/07 08:28:04;;;;;;;8.15;2.20;;;13.90;99.90;;;13.47;89.11;99838.91;5027345;28;20103;-47
2021/05/07 08:30:30;;;;;;;7.32;2.10;;;14.00;99.90;;;13.47;89.20;99833.66;5009688;28;20041;-48
2021/05/07 08:32:56;;;;;;;9.57;2.13;;;14.00;99.90;;;13.51;89.13;99845.41;5027160;28;20446;-47
2021/05/07 08:35:23;;;;;;;14.25;2.50;;;14.00;99.90;;;13.49;89.32;99837.72;5027462;28;20042;-47
2021/05/07 08:37:48;;;;;;;9.05;2.30;;;14.00;99.90;;;13.52;89.49;99840.00;5027533;28;20073;-49
2021/05/07 08:40:17;;;;;;;8.25;2.47;;;14.00;99.90;;;13.66;89.29;99842.81;5027400;28;20068;-47
2021/05/07 08:42:44;;;;;;;11.65;2.80;;;14.10;99.90;;;13.83;88.64;99842.44;5027295;28;20488;-47
2021/05/07 08:45:11;;;;;;;11.63;2.60;;;14.30;99.90;;;14.02;88.23;99837.66;5027927;28;20074;-47
2021/05/07 08:47:38;;;;;;;7.50;1.95;;;14.40;99.90;;;14.10;87.60;99843.63;5027225;28;20079;-48
2021/05/07 08:50:07;;;;;;;7.97;1.92;;;14.60;99.90;;;14.15;87.49;99841.28;5027207;28;20354;-50
2021/05/07 08:52:34;;;;;;;11.25;2.03;;;14.70;99.90;;;14.20;87.29;99851.16;5027354;28;20089;-49
2021/05/07 08:55:00;;;;;;;15.07;5.30;;;14.70;99.90;;;14.28;87.30;99858.94;5027477;28;20072;-47
2021/05/07 08:57:27;;;;;;;12.30;3.42;;;14.70;99.90;;;14.27;87.35;99852.88;5026303;28;20471;-48
2021/05/07 08:59:53;;;;;;;8.77;2.30;;;14.80;99.90;;;14.22;87.67;99860.47;5027210;28;20427;-51
2021/05/07 09:02:30;;;;;;;9.23;2.65;;;14.70;99.90;;;14.12;87.41;99856.53;5021833;28;20034;-47
2021/05/07 09:04:58;;;;;;;11.10;2.40;;;14.70;99.90;;;14.16;87.39;99861.22;5007611;28;20116;-53
2021/05/07 09:07:25;;;;;;;6.88;2.50;;;14.70;99.90;;;14.29;86.86;99861.38;5017374;28;20034;-47
2021/05/07 09:09:57;;;;;;;9.48;2.90;;;14.70;99.90;;;14.41;86.35;99853.06;5027024;28;20033;-48
2021/05/07 09:12:40;;;;;;;6.93;2.60;;;15.00;99.90;;;14.56;85.53;99856.50;5027081;28;20041;-47
2021/05/07 09:15:09;;;;;;;9.77;3.22;;;15.10;99.90;;;14.73;85.44;99855.25;5027088;28;20033;-47
2021/05/07 09:17:37;;;;;;;8.68;2.42;;;15.30;99.90;;;14.82;85.24;99861.19;5027097;28;20026;-53
2021/05/07 09:20:12;;;;;;;6.45;1.65;;;15.30;99.90;;;15.06;84.36;99862.63;5026699;28;20526;-47
2021/05/07 09:22:39;;;;;;;4.68;1.42;;;15.50;99.90;;;15.19;83.97;99863.53;5027181;28;20103;-48
2021/05/07 09:25:08;;;;;;;7.82;1.60;;;15.70;99.90;;;15.20;83.99;99869.59;5026779;28;20034;-50
2021/05/07 09:27:34;;;;;;;16.42;1.75;;;15.80;99.90;;;15.16;83.88;99873.59;5025801;28;20124;-49
2021/05/07 09:30:01;;;;;;;7.65;1.40;;;15.70;99.90;;;15.24;83.91;99870.84;5024721;28;20217;-49
2021/05/07 09:32:35;;;;;;;6.18;1.23;;;15.80;99.90;;;15.23;83.40;99872.66;5027098;28;20033;-50
2021/05/07 09:35:11;;;;;;;8.00;1.73;;;15.80;99.90;;;15.30;83.25;99872.72;5030111;28;20389;-47
2021/05/07 09:37:38;;;;;;;10.38;1.58;;;15.80;99.90;;;15.33;83.03;99877.59;5029802;28;20522;-50
2021/05/07 09:40:15;;;;;;;12.55;1.65;;;15.90;99.90;;;15.44;82.87;99871.03;5030974;28;20065;-50
2021/05/07 09:42:42;;;;;;;8.75;2.00;;;16.00;99.90;;;15.46;83.01;99869.03;5029094;28;20536;-47
2021/05/07 09:45:24;;;;;;;6.85;1.35;;;16.00;99.90;;;15.48;82.53;99877.53;5012493;28;20086;-47
2021/05/07 09:47:51;;;;;;;8.95;1.55;;;16.00;99.90;;;15.43;82.63;99875.47;5031140;28;20036;-51
2021/05/07 09:50:20;;;;;;;11.52;1.60;;;16.00;99.90;;;15.55;82.72;99878.38;5029442;28;20045;-53
2021/05/07 09:52:50;;;;;;;9.00;2.25;;;16.00;99.90;;;15.66;82.40;99874.44;5030736;28;20037;-44
2021/05/07 09:55:18;;;;;;;6.70;1.42;;;16.20;99.90;;;15.66;82.22;99874.44;5030629;28;20094;-49
2021/05/07 09:57:45;;;;;;;12.45;1.85;;;16.30;99.90;;;15.70;82.27;99871.22;5031042;28;20033;-51
2021/05/07 10:00:12;;;;;;;10.48;1.08;;;16.30;99.90;;;15.72;81.94;99874.47;5030600;28;20395;-53
2021/05/07 10:02:38;;;;;;;10.82;1.80;;;16.30;99.90;;;15.79;81.82;99874.53;5030667;28;20053;-49
2021/05/07 10:05:04;;;;;;;6.80;1.33;;;16.30;99.90;;;15.93;81.33;99876.25;5030559;28;20033;-47
2021/05/07 10:07:30;;;;;;;9.50;1.55;;;16.40;99.90;;;16.07;81.02;99883.16;5012848;28;20029;-47
2021/05/07 10:10:06;;;;;;;11.15;1.67;;;16.50;99.90;;;16.22;80.43;99877.78;5030792;28;20457;-53
2021/05/07 10:12:38;;;;;;;10.80;1.90;;;16.70;99.90;;;16.38;80.25;99874.03;5030619;28;20026;-49
2021/05/07 10:15:05;;;;;;;10.23;1.58;;;16.90;99.90;;;16.71;79.16;99879.41;5030510;28;20536;-52
2021/05/07 10:17:31;;;;;;;10.88;2.90;;;17.10;99.90;;;16.76;79.15;99877.00;5030530;28;20037;-48
2021/05/07 10:19:58;;;;;;;14.35;4.47;;;17.30;99.90;;;16.71;79.15;99874.97;5029873;28;20053;-47
2021/05/07 10:22:41;;;;;;;8.50;1.23;;;17.30;99.90;;;16.65;78.68;99874.94;4995980;28;20041;-50
2021/05/07 10:25:16;;;;;;;9.30;1.55;;;17.30;99.90;;;16.63;78.66;99877.75;5030056;28;20040;-47